Home > Products > Valid Products > TAF

000
FTUS44 KMEG 301726
TAFMEM
TAF
KMEM 301726Z 3018/3118 04013G20KT P6SM SKC
     FM310100 04007KT P6SM SKC
     FM311400 05010KT P6SM SKC=



000
FTUS44 KMEG 301726
TAFJBR
TAF
KJBR 301726Z 3018/3118 05011G18KT P6SM SKC
     FM310100 02004KT P6SM SKC
     FM311400 04007KT P6SM SKC=



000
FTUS44 KMEG 301726
TAFMKL
TAF
KMKL 301726Z 3018/3118 03011G18KT P6SM SKC
     FM310100 01003KT P6SM SKC
     FM311400 04006KT P6SM SKC=



000
FTUS44 KMEG 301726
TAFTUP
TAF
KTUP 301726Z 3018/3118 05012G18KT P6SM SCT035
     FM310100 04007KT P6SM SKC
     FM311400 06010KT P6SM SKC=



000
FTUS44 KMEG 301457 AAB
TAFMEM
TAF AMD
KMEM 301457Z 3015/3112 04013G20KT P6SM SKC
     FM310100 04007KT P6SM SKC=



000
FTUS44 KMEG 301457 AAB
TAFMEM
TAF AMD
KMEM 301457Z 3015/3112 04013G20KT P6SM SKC
     FM310100 04007KT P6SM SKC=



000
FTUS44 KMEG 301419 AAB
TAFTUP
TAF AMD
KTUP 301419Z 3014/3112 04012G17KT P6SM SCT013
      TEMPO 3014/3016 BKN013
     FM301600 04012G18KT P6SM SCT025
     FM301800 04012G18KT P6SM SCT040
     FM310100 04006KT P6SM SKC=



000
FTUS44 KMEG 301328 AAA
TAFTUP
TAF AMD
KTUP 301328Z 3013/3112 04010KT P6SM SCT035
     FM301800 03011G17KT P6SM SCT040
     FM310100 04006KT P6SM SKC=



000
FTUS44 KMEG 301326 AAA
TAFJBR
TAF AMD
KJBR 301326Z 3013/3112 04011G18KT P6SM SKC
     FM310100 02003KT P6SM SKC=



000
FTUS44 KMEG 301326 AAA
TAFJBR
TAF AMD
KJBR 301326Z 3013/3112 04011G18KT P6SM SKC
     FM310100 02003KT P6SM SKC=



000
FTUS44 KMEG 301325 AAA
TAFMKL
TAF AMD
KMKL 301325Z 3013/3112 03009KT P6SM SCT035
     FM301800 02010G18KT P6SM SKC
     FM310100 01002KT P6SM SKC=



000
FTUS44 KMEG 301325 AAA
TAFMKL
TAF AMD
KMKL 301325Z 3013/3112 03009KT P6SM SCT035
     FM301800 02010G18KT P6SM SKC
     FM310100 01002KT P6SM SKC=



000
FTUS44 KMEG 301324 AAA
TAFMEM
TAF AMD
KMEM 301324Z 3013/3112 03011KT P6SM SCT035
     FM301800 02012G18KT P6SM SKC
     FM310100 04007KT P6SM SKC=



000
FTUS44 KMEG 301324 AAA
TAFMEM
TAF AMD
KMEM 301324Z 3013/3112 03011KT P6SM SCT035
     FM301800 02012G18KT P6SM SKC
     FM310100 04007KT P6SM SKC=



000
FTUS44 KMEG 301130
TAFJBR
TAF
KJBR 301130Z 3012/3112 04010KT P6SM FEW025
     FM301500 04010G18KT P6SM SKC
     FM310100 02003KT P6SM SKC=



000
FTUS44 KMEG 301130
TAFMEM
TAF
KMEM 301130Z 3012/3112 02007KT P6SM SCT025
     FM301500 03010KT P6SM FEW040
     FM301800 02010G18KT P6SM SKC
     FM310100 04007KT P6SM SKC=



000
FTUS44 KMEG 301130
TAFJBR
TAF
KJBR 301130Z 3012/3112 04010KT P6SM FEW025
     FM301500 04010G18KT P6SM SKC
     FM310100 02003KT P6SM SKC=



000
FTUS44 KMEG 301130
TAFTUP
TAF
KTUP 301130Z 3012/3112 03005KT P6SM SCT015 BKN020
     FM301500 03008KT P6SM SCT035 SCT150
     FM302200 03010KT P6SM SKC
     FM310100 04006KT P6SM SKC=



000
FTUS44 KMEG 301130
TAFMEM
TAF
KMEM 301130Z 3012/3112 02007KT P6SM SCT025
     FM301500 03010KT P6SM FEW040
     FM301800 02010G18KT P6SM SKC
     FM310100 04007KT P6SM SKC=



000
FTUS44 KMEG 301130
TAFMKL
TAF
KMKL 301130Z 3012/3112 02003KT P6SM SCT025 SCT250
     FM301500 02008KT P6SM FEW040
     FM301800 02010G18KT P6SM SKC
     FM310100 01002KT P6SM SKC=



000
FTUS44 KMEG 301130
TAFMKL
TAF
KMKL 301130Z 3012/3112 02003KT P6SM SCT025 SCT250
     FM301500 02008KT P6SM FEW040
     FM301800 02010G18KT P6SM SKC
     FM310100 01002KT P6SM SKC=



000
FTUS44 KMEG 301130
TAFTUP
TAF
KTUP 301130Z 3012/3112 03005KT P6SM SCT015 BKN020
     FM301500 03008KT P6SM SCT035 SCT150
     FM302200 03010KT P6SM SKC
     FM310100 04006KT P6SM SKC=



000
FTUS44 KMEG 300904 AAA
TAFMEM
TAF AMD
KMEM 300904Z 3009/3106 02006KT P6SM SCT040
     FM301400 03010KT P6SM SCT040 SCT250
     FM301800 02012G18KT P6SM SKC
     FM310100 03007KT P6SM SKC=



000
FTUS44 KMEG 300530
TAFMKL
TAF
KMKL 300530Z 3006/3106 36003KT P6SM VCTS BKN040CB BKN150
     FM300900 02003KT P6SM SCT040 BKN150
     FM301300 02010KT P6SM SCT250
     FM310100 01002KT P6SM SKC=



000
FTUS44 KMEG 300530
TAFTUP
TAF
KTUP 300530Z 3006/3106 VRB02KT P6SM VCSH BKN060 BKN150
     FM301100 36005KT P6SM BKN015 OVC060
      TEMPO 3011/3015 5SM BR BKN008
     FM301500 01007KT P6SM BKN035 BKN150
     FM301800 03012KT P6SM VCTS SCT035CB BKN150
     FM302200 03010KT P6SM SCT250
     FM310100 02004KT P6SM SKC=



000
FTUS44 KMEG 300530
TAFMEM
TAF
KMEM 300530Z 3006/3106 02005KT P6SM BKN060 BKN150
     FM301400 03010KT P6SM SCT250
     FM301800 02012G18KT P6SM SKC
     FM310100 03007KT P6SM SKC=



000
FTUS44 KMEG 300530
TAFJBR
TAF
KJBR 300530Z 3006/3106 03005KT P6SM SCT060 BKN150
     FM300900 04010KT P6SM SCT250
     FM310100 03004KT P6SM SKC=



000
FTUS44 KMEG 300258 AAB
TAFMEM
TAF AMD
KMEM 300258Z 3003/3024 30006KT P6SM SCT060 BKN250
     FM300400 02005KT P6SM BKN060 BKN150
     FM301400 03010KT P6SM SCT250=



000
FTUS44 KMEG 300258 AAB
TAFMEM
TAF AMD
KMEM 300258Z 3003/3024 30006KT P6SM SCT060 BKN250
     FM300400 02005KT P6SM BKN060 BKN150
     FM301400 03010KT P6SM SCT250=



000
FTUS44 KMEG 300148 AAA
TAFMEM
TAF AMD
KMEM 300148Z 3002/3024 33006KT P6SM VCTS SCT060CB BKN250
     FM300400 02005KT P6SM BKN060 BKN150
     FM301400 03010KT P6SM SCT250=



000
FTUS44 KMEG 300148 AAA
TAFMEM
TAF AMD
KMEM 300148Z 3002/3024 33006KT P6SM VCTS SCT060CB BKN250
     FM300400 02005KT P6SM BKN060 BKN150
     FM301400 03010KT P6SM SCT250=



000
FTUS44 KMEG 292330
TAFMEM
TAF
KMEM 292330Z 3000/3024 30007KT P6SM SCT060 BKN250
     FM300300 02005KT P6SM BKN060 BKN150
     FM301400 03010KT P6SM SCT250=



000
FTUS44 KMEG 292330
TAFTUP
TAF
KTUP 292330Z 3000/3024 27006KT P6SM SCT050 BKN150
     FM300200 VRB02KT P6SM BKN060 BKN150
     FM301100 36005KT P6SM BKN015 OVC060
      TEMPO 3011/3015 5SM BR BKN008
     FM301500 03007KT P6SM BKN035 BKN150
     FM301800 03012KT P6SM VCTS SCT035CB BKN150
     FM302200 03010KT P6SM SCT250=



000
FTUS44 KMEG 292330
TAFMKL
TAF
KMKL 292330Z 3000/3024 30005KT P6SM VCTS BKN050CB BKN150
     FM300600 36003KT P6SM BKN040 BKN150
     FM301300 02010KT P6SM SCT250=



000
FTUS44 KMEG 292330
TAFJBR
TAF
KJBR 292330Z 3000/3024 30005KT P6SM VCTS SCT050CB BKN250
     FM300100 36003KT P6SM VCTS BKN050CB BKN150
     FM300600 03003KT P6SM BKN060 BKN150
     FM300900 04009KT P6SM SCT250=



000
FTUS44 KMEG 292049 AAC
TAFTUP
TAF AMD
KTUP 292049Z 2921/3018 36006KT P6SM VCTS SCT050CB BKN150
     FM300200 VRB02KT P6SM SCT050 SCT150
     FM301500 04008KT P6SM SCT250=



000
FTUS44 KMEG 292048 AAB
TAFJBR
TAF AMD
KJBR 292048Z 2921/3018 30005KT P6SM SCT250
     FM300100 03003KT P6SM SKC
     FM300900 04009KT P6SM SCT250=



000
FTUS44 KMEG 292047 AAB
TAFMKL
TAF AMD
KMKL 292047Z 2921/3018 30006KT P6SM VCTS BKN050CB BKN150
     FM300200 03003KT P6SM SCT040 SCT250
     FM301400 04008KT P6SM SCT250=



000
FTUS44 KMEG 292046 AAB
TAFMEM
TAF AMD
KMEM 292046Z 2921/3018 30007KT P6SM SCT060 SCT250
     FM300300 02005KT P6SM SCT040 SCT250
     FM301400 04008KT P6SM SCT250=



000
FTUS44 KMEG 292045 AAA
TAFJBR
TAF AMD
KJBR 292045Z 2921/3018 30005KT P6SM SCT250
     FM300100 03003KT P6SM SKC
     FM300900 04009KT P6SM SCT250=



000
FTUS44 KMEG 292045 AAA
TAFMKL
TAF AMD
KMKL 292045Z 2921/3018 30006KT P6SM VCTS BKN050CB BKN150
     FM300200 03003KT P6SM SCT040 SCT250
     FM301400 04008KT P6SM SCT250=



000
FTUS44 KMEG 292045 AAA
TAFMEM
TAF AMD
KMEM 292045Z 2921/3018 30007KT P6SM SCT060 SCT250
     FM300300 02005KT P6SM SCT040 SCT250
     FM301400 04008KT P6SM SCT250=



000
FTUS44 KMEG 292045 AAB
TAFTUP
TAF AMD
KTUP 292045Z 2921/3018 36006KT P6SM VCTS SCT050CB BKN150
     FM300200 VRB02KT P6SM SCT050 SCT150
     FM301500 04008KT P6SM SCT250=



000
FTUS44 KMEG 291810 AAA
TAFTUP
TAF AMD
KTUP 291810Z 2918/3018 36006KT P6SM VCTS SCT050CB BKN150
      TEMPO 2918/2920 5SM -TSRA BKN040CB
     FM300200 VRB02KT P6SM SCT050 SCT150
     FM301500 04008KT P6SM SCT250=



000
FTUS44 KMEG 291731
TAFMEM
TAF
KMEM 291731Z 2918/3018 30007KT P6SM SCT250
     FM300300 02005KT P6SM SCT040 SCT250
     FM301400 04008KT P6SM SCT250=



000
FTUS44 KMEG 291731
TAFMKL
TAF
KMKL 291731Z 2918/3018 30006KT P6SM VCTS BKN050CB BKN150
     FM300200 03003KT P6SM SCT040 SCT250
     FM301400 04008KT P6SM SCT250=



000
FTUS44 KMEG 291731
TAFJBR
TAF
KJBR 291731Z 2918/3018 30005KT P6SM SCT250
     FM300100 03003KT P6SM SKC
     FM300900 04009KT P6SM SCT250=



000
FTUS44 KMEG 291731
TAFTUP
TAF
KTUP 291731Z 2918/3018 36006KT P6SM VCTS SCT050CB BKN150
     FM300200 VRB02KT P6SM SCT050 SCT150
     FM301500 04008KT P6SM SCT250=



000
FTUS44 KMEG 291454 AAA
TAFMEM
TAF AMD
KMEM 291454Z 2915/3012 26005KT P6SM SCT040 BKN150
     FM291900 30007KT P6SM SCT050 SCT250
     FM300300 02005KT P6SM SCT040 SCT250=



000
FTUS44 KMEG 291454 AAA
TAFMEM
TAF AMD
KMEM 291454Z 2915/3012 26005KT P6SM SCT040 BKN150
     FM291900 30007KT P6SM SCT050 SCT250
     FM300300 02005KT P6SM SCT040 SCT250=



000
FTUS44 KMEG 291130
TAFMEM
TAF
KMEM 291130Z 2912/3012 VRB03KT P6SM BKN150
     FM291500 26005KT P6SM SCT040 SCT150
     FM291900 30007KT P6SM SCT050 SCT250
     FM300300 02005KT P6SM SCT040 SCT250=



000
FTUS44 KMEG 291130
TAFJBR
TAF
KJBR 291130Z 2912/3012 26004KT P6SM SCT150
     FM291500 26006KT P6SM FEW050 SCT250
     FM291800 30007KT P6SM SCT050
     FM300100 03003KT P6SM SKC=



000
FTUS44 KMEG 291130
TAFTUP
TAF
KTUP 291130Z 2912/3012 00000KT P6SM SCT040 BKN120
     FM291500 30005KT P6SM SCT040 SCT150
     FM291800 34006KT P6SM VCTS BKN050CB BKN150
     FM300200 VRB02KT P6SM SCT050 SCT150=



000
FTUS44 KMEG 291130
TAFMKL
TAF
KMKL 291130Z 2912/3012 00000KT P6SM BKN120
     FM291500 26003KT P6SM SCT040 SCT150
     FM291800 30006KT P6SM VCTS BKN050CB BKN150
     FM300200 03003KT P6SM SCT040 SCT250=



000
FTUS44 KMEG 290902 AAA
TAFMEM
TAF AMD
KMEM 290902Z 2909/3006 VRB03KT P6SM SCT150
     FM291500 31007KT P6SM SCT045
     FM291800 33007KT P6SM VCTS BKN045CB
     FM300200 02003KT P6SM SCT045=



000
FTUS44 KMEG 290530
TAFMEM
TAF
KMEM 290530Z 2906/3006 VRB02KT P6SM SKC
     FM291500 31007KT P6SM SCT045
     FM291800 33007KT P6SM VCTS BKN045CB
     FM300200 02003KT P6SM SCT045=



000
FTUS44 KMEG 290530
TAFMKL
TAF
KMKL 290530Z 2906/3006 00000KT P6SM SKC
      TEMPO 2909/2912 3SM BR
     FM291500 30006KT P6SM SCT045
     FM291800 33006KT P6SM VCTS BKN045CB
     FM300200 35002KT P6SM SCT045=



000
FTUS44 KMEG 290530
TAFTUP
TAF
KTUP 290530Z 2906/3006 00000KT P6SM SKC
      TEMPO 2910/2912 5SM HZ
     FM291500 30005KT P6SM SCT045
     FM291800 35006KT P6SM VCTS BKN045CB
     FM300200 03003KT P6SM SCT045=



000
FTUS44 KMEG 290530
TAFJBR
TAF
KJBR 290530Z 2906/3006 VRB02KT P6SM SKC
     FM291500 32007KT P6SM SCT045
     FM291800 34008KT P6SM VCTS BKN045CB
     FM300200 03003KT P6SM SCT045=



000
FTUS44 KMEG 290303 AAA
TAFMEM
TAF AMD
KMEM 290303Z 2903/2924 VRB02KT P6SM SKC
     FM291500 31007KT P6SM SCT045
     FM291800 33007KT P6SM VCTS BKN045CB=



000
FTUS44 KMEG 290303 AAA
TAFMEM
TAF AMD
KMEM 290303Z 2903/2924 VRB02KT P6SM SKC
     FM291500 31007KT P6SM SCT045
     FM291800 33007KT P6SM VCTS BKN045CB=



000
FTUS44 KMEG 290251 AAB
TAFTUP
TAF AMD
KTUP 290251Z 2903/2924 00000KT P6SM SKC
      TEMPO 2910/2912 5SM HZ
     FM291500 30005KT P6SM SCT045
     FM291800 35006KT P6SM VCTS BKN045CB=



000
FTUS44 KMEG 290251 AAB
TAFTUP
TAF AMD
KTUP 290251Z 2903/2924 00000KT P6SM SKC
      TEMPO 2910/2912 5SM HZ
     FM291500 30005KT P6SM SCT045
     FM291800 35006KT P6SM VCTS BKN045CB=



000
FTUS44 KMEG 290147 AAA
TAFMKL
TAF AMD
KMKL 290147Z 2902/2924 03003KT P6SM VCTS SCT050CB SCT250
     FM290400 00000KT P6SM SKC
      TEMPO 2909/2912 3SM BR
     FM291500 30006KT P6SM SCT045
     FM291800 33006KT P6SM VCTS BKN045CB=



000
FTUS44 KMEG 290147 AAA
TAFMKL
TAF AMD
KMKL 290147Z 2902/2924 03003KT P6SM VCTS SCT050CB SCT250
     FM290400 00000KT P6SM SKC
      TEMPO 2909/2912 3SM BR
     FM291500 30006KT P6SM SCT045
     FM291800 33006KT P6SM VCTS BKN045CB=



000
FTUS44 KMEG 290015 AAA
TAFTUP
TAF AMD
KTUP 290015Z 2900/2924 28005KT P6SM FEW050
     FM290100 00000KT P6SM SKC
      TEMPO 2910/2912 5SM HZ
     FM291500 30005KT P6SM SCT045
     FM291800 35006KT P6SM VCTS BKN045CB
      AMD NOT SKED=



000
FTUS44 KMEG 290015 AAA
TAFTUP
TAF AMD
KTUP 290015Z 2900/2924 28005KT P6SM FEW050
     FM290100 00000KT P6SM SKC
      TEMPO 2910/2912 5SM HZ
     FM291500 30005KT P6SM SCT045
     FM291800 35006KT P6SM VCTS BKN045CB
      AMD NOT SKED=



000
FTUS44 KMEG 282320
TAFMEM
TAF
KMEM 282320Z 2900/2924 26007KT P6SM FEW050
     FM290100 20003KT P6SM SKC
     FM291500 31007KT P6SM SCT045
     FM291800 33007KT P6SM VCTS BKN045CB=



000
FTUS44 KMEG 282320
TAFMEM
TAF
KMEM 282320Z 2900/2924 26007KT P6SM FEW050
     FM290100 20003KT P6SM SKC
     FM291500 31007KT P6SM SCT045
     FM291800 33007KT P6SM VCTS BKN045CB=



000
FTUS44 KMEG 282320
TAFTUP
TAF
KTUP 282320Z 2900/2924 28005KT P6SM FEW050
     FM290100 00000KT P6SM SKC
      TEMPO 2910/2912 5SM HZ
     FM291500 30005KT P6SM SCT045
     FM291800 35006KT P6SM VCTS BKN045CB=



000
FTUS44 KMEG 282320
TAFJBR
TAF
KJBR 282320Z 2900/2924 22007KT P6SM FEW050
     FM290100 VRB02KT P6SM SKC
     FM291500 32007KT P6SM SCT045
     FM291800 34008KT P6SM VCTS BKN045CB=



000
FTUS44 KMEG 282320
TAFMKL
TAF
KMKL 282320Z 2900/2924 25005KT P6SM FEW050
     FM290100 00000KT P6SM SKC
      TEMPO 2909/2912 3SM BR
     FM291500 30006KT P6SM SCT045
     FM291800 33006KT P6SM VCTS BKN045CB=



000
FTUS44 KMEG 282320
TAFJBR
TAF
KJBR 282320Z 2900/2924 22007KT P6SM FEW050
     FM290100 VRB02KT P6SM SKC
     FM291500 32007KT P6SM SCT045
     FM291800 34008KT P6SM VCTS BKN045CB=



000
FTUS44 KMEG 282320
TAFMKL
TAF
KMKL 282320Z 2900/2924 25005KT P6SM FEW050
     FM290100 00000KT P6SM SKC
      TEMPO 2909/2912 3SM BR
     FM291500 30006KT P6SM SCT045
     FM291800 33006KT P6SM VCTS BKN045CB=



000
FTUS44 KMEG 282320
TAFTUP
TAF
KTUP 282320Z 2900/2924 28005KT P6SM FEW050
     FM290100 00000KT P6SM SKC
      TEMPO 2910/2912 5SM HZ
     FM291500 30005KT P6SM SCT045
     FM291800 35006KT P6SM VCTS BKN045CB=



000
FTUS44 KMEG 282053 AAA
TAFMEM
TAF AMD
KMEM 282053Z 2821/2918 25006KT P6SM SCT050
     FM290100 20003KT P6SM SKC
     FM291500 31007KT P6SM SCT045=



000
FTUS44 KMEG 281722
TAFMEM
TAF
KMEM 281722Z 2818/2918 25006KT P6SM SCT050
     FM290100 20003KT P6SM SKC
     FM291500 31007KT P6SM SCT045=



000
FTUS44 KMEG 281722
TAFTUP
TAF
KTUP 281722Z 2818/2918 28005KT P6SM SCT050
     FM290100 00000KT P6SM SKC
      TEMPO 2910/2912 5SM HZ
     FM291500 30005KT P6SM FEW045=



000
FTUS44 KMEG 281722
TAFJBR
TAF
KJBR 281722Z 2818/2918 23007KT P6SM SCT050
     FM290100 VRB02KT P6SM SKC
     FM291500 32007KT P6SM FEW045=



000
FTUS44 KMEG 281722
TAFMKL
TAF
KMKL 281722Z 2818/2918 26006KT P6SM SCT050 SCT250
     FM290100 00000KT P6SM SKC
      TEMPO 2909/2912 3SM BR
     FM291500 30006KT P6SM SCT045=



000
FTUS44 KMEG 281508 AAA
TAFMEM
TAF AMD
KMEM 281508Z 2815/2912 25007KT P6SM SCT050
     FM290100 20003KT P6SM SKC=



000
FTUS44 KMEG 281508 AAA
TAFMEM
TAF AMD
KMEM 281508Z 2815/2912 25007KT P6SM SCT050
     FM290100 20003KT P6SM SKC=



000
FTUS44 KMEG 281346 AAA
TAFMKL
TAF AMD
KMKL 281346Z 2814/2912 26006KT P6SM SCT050 SCT250
     FM290100 00000KT P6SM SKC
      TEMPO 2909/2912 3SM BR=



000
FTUS44 KMEG 281346 AAA
TAFMKL
TAF AMD
KMKL 281346Z 2814/2912 26006KT P6SM SCT050 SCT250
     FM290100 00000KT P6SM SKC
      TEMPO 2909/2912 3SM BR=



000
FTUS44 KMEG 281130
TAFMEM
TAF
KMEM 281130Z 2812/2912 20005KT P6SM SKC
     FM281500 25007KT P6SM SCT050
     FM290100 20003KT P6SM SKC=



000
FTUS44 KMEG 281130
TAFTUP
TAF
KTUP 281130Z 2812/2912 00000KT P6SM SKC
      TEMPO 2812/2813 5SM BR
     FM281500 28005KT P6SM SCT050
     FM290100 00000KT P6SM SKC
      TEMPO 2909/2912 5SM BR=



000
FTUS44 KMEG 281130
TAFMKL
TAF
KMKL 281130Z 2812/2912 00000KT 4SM BR SKC
      TEMPO 2812/2814 1SM BR
     FM281500 26006KT P6SM SCT050 SCT250
     FM290100 00000KT P6SM SKC
      TEMPO 2909/2912 3SM BR=



000
FTUS44 KMEG 281130
TAFJBR
TAF
KJBR 281130Z 2812/2912 VRB03KT P6SM SKC
      TEMPO 2812/2813 4SM BR
     FM281500 23007KT P6SM SCT050
     FM290100 00000KT P6SM SKC=



000
FTUS44 KMEG 281130
TAFTUP
TAF
KTUP 281130Z 2812/2912 00000KT P6SM SKC
      TEMPO 2812/2813 5SM BR
     FM281500 28005KT P6SM SCT050
     FM290100 00000KT P6SM SKC
      TEMPO 2909/2912 5SM BR=



000
FTUS44 KMEG 281130
TAFMEM
TAF
KMEM 281130Z 2812/2912 20005KT P6SM SKC
     FM281500 25007KT P6SM SCT050
     FM290100 20003KT P6SM SKC=



000
FTUS44 KMEG 281130
TAFJBR
TAF
KJBR 281130Z 2812/2912 VRB03KT P6SM SKC
      TEMPO 2812/2813 4SM BR
     FM281500 23007KT P6SM SCT050
     FM290100 00000KT P6SM SKC=



000
FTUS44 KMEG 281130
TAFMKL
TAF
KMKL 281130Z 2812/2912 00000KT 4SM BR SKC
      TEMPO 2812/2814 1SM BR
     FM281500 26006KT P6SM SCT050 SCT250
     FM290100 00000KT P6SM SKC
      TEMPO 2909/2912 3SM BR=



000
FTUS44 KMEG 280903 AAA
TAFMEM
TAF AMD
KMEM 280903Z 2809/2906 20005KT P6SM SKC
     FM281500 25006KT P6SM FEW040
     FM290100 19003KT P6SM SKC=



000
FTUS44 KMEG 280530
TAFMEM
TAF
KMEM 280530Z 2806/2906 20003KT P6SM SKC
     FM281500 25006KT P6SM FEW040
     FM290100 19003KT P6SM SKC=



000
FTUS44 KMEG 280530
TAFTUP
TAF
KTUP 280530Z 2806/2906 VRB02KT P6SM SKC
     FM281500 28005KT P6SM FEW040
     FM290100 20002KT P6SM SKC=



000
FTUS44 KMEG 280530
TAFJBR
TAF
KJBR 280530Z 2806/2906 21003KT P6SM SKC
     FM281500 21008KT P6SM FEW040
     FM290100 20002KT P6SM SKC=



000
FTUS44 KMEG 280530
TAFMKL
TAF
KMKL 280530Z 2806/2906 19002KT 4SM BR SKC
      TEMPO 2810/2814 00000KT 1SM BR
     FM281500 26005KT P6SM FEW040
     FM290100 19002KT P6SM SKC=



000
FTUS44 KMEG 280257 AAA
TAFMEM
TAF AMD
KMEM 280257Z 2803/2824 20003KT P6SM SKC
     FM281500 25006KT P6SM FEW040=



000
FTUS44 KMEG 280019 AAA
TAFJBR
TAF AMD
KJBR 280019Z 2800/2824 22008KT P6SM SCT045
     FM280200 21003KT P6SM SKC
     FM281500 21008KT P6SM FEW040=



000
FTUS44 KMEG 280019 AAA
TAFJBR
TAF AMD
KJBR 280019Z 2800/2824 22008KT P6SM SCT045
     FM280200 21003KT P6SM SKC
     FM281500 21008KT P6SM FEW040=



000
FTUS44 KMEG 272320
TAFTUP
TAF
KTUP 272320Z 2800/2824 26006KT P6SM FEW040
     FM280200 VRB02KT P6SM SKC
     FM281500 28005KT P6SM FEW040=



000
FTUS44 KMEG 272320
TAFJBR
TAF
KJBR 272320Z 2800/2824 22008KT P6SM VCTS BKN045CB
     FM280200 21003KT P6SM SKC
     FM281500 21008KT P6SM FEW040=



000
FTUS44 KMEG 272320
TAFMKL
TAF
KMKL 272320Z 2800/2824 22005KT P6SM FEW045
     FM280700 19002KT 4SM BR SKC
      TEMPO 2810/2814 00000KT 1SM BR
     FM281500 26005KT P6SM FEW040=



000
FTUS44 KMEG 272320
TAFTUP
TAF
KTUP 272320Z 2800/2824 26006KT P6SM FEW040
     FM280200 VRB02KT P6SM SKC
     FM281500 28005KT P6SM FEW040=



000
FTUS44 KMEG 272320
TAFMEM
TAF
KMEM 272320Z 2800/2824 22006KT P6SM FEW050
     FM280300 19003KT P6SM SKC
     FM281500 25006KT P6SM FEW040=



000
FTUS44 KMEG 272320
TAFMEM
TAF
KMEM 272320Z 2800/2824 22006KT P6SM FEW050
     FM280300 19003KT P6SM SKC
     FM281500 25006KT P6SM FEW040=



000
FTUS44 KMEG 272320
TAFMKL
TAF
KMKL 272320Z 2800/2824 22005KT P6SM FEW045
     FM280700 19002KT 4SM BR SKC
      TEMPO 2810/2814 00000KT 1SM BR
     FM281500 26005KT P6SM FEW040=



000
FTUS44 KMEG 272320
TAFJBR
TAF
KJBR 272320Z 2800/2824 22008KT P6SM VCTS BKN045CB
     FM280200 21003KT P6SM SKC
     FM281500 21008KT P6SM FEW040=



000
FTUS44 KMEG 272052 AAA
TAFMEM
TAF AMD
KMEM 272052Z 2721/2818 22006KT P6SM FEW050
     FM280300 19003KT P6SM SKC
     FM281500 22005KT P6SM FEW040=



000
FTUS44 KMEG 272052 AAA
TAFMEM
TAF AMD
KMEM 272052Z 2721/2818 22006KT P6SM FEW050
     FM280300 19003KT P6SM SKC
     FM281500 22005KT P6SM FEW040=



    US Dept of Commerce
    National Oceanic and Atmospheric Administration
    National Weather Service
    1325 East West Highway
    Silver Spring, MD 20910
    Page Author: NWS Internet Services Team
Disclaimer
Information Quality
Credits
Glossary
Privacy Policy
Freedom of Information Act (FOIA)
About Us
Career Opportunities